sensor_id;sensor_type;location;lat;lon;timestamp;P1;durP1;ratioP1;P2;durP2;ratioP2
56075;SDS011;41951;49.022;12.066;2022-11-20T00:02:24;32.40;;;16.15;;
56075;SDS011;41951;49.022;12.066;2022-11-20T00:04:50;29.70;;;15.02;;
56075;SDS011;41951;49.022;12.066;2022-11-20T00:07:16;30.92;;;15.70;;
56075;SDS011;41951;49.022;12.066;2022-11-20T00:09:41;31.67;;;15.93;;
56075;SDS011;41951;49.022;12.066;2022-11-20T00:12:07;28.75;;;15.35;;
56075;SDS011;41951;49.022;12.066;2022-11-20T00:14:32;31.55;;;16.02;;
56075;SDS011;41951;49.022;12.066;2022-11-20T00:16:58;30.38;;;15.27;;
56075;SDS011;41951;49.022;12.066;2022-11-20T00:19:23;29.73;;;15.23;;
56075;SDS011;41951;49.022;12.066;2022-11-20T00:21:49;29.60;;;16.38;;
56075;SDS011;41951;49.022;12.066;2022-11-20T00:24:17;29.55;;;15.85;;
56075;SDS011;41951;49.022;12.066;2022-11-20T00:26:43;30.15;;;16.52;;
56075;SDS011;41951;49.022;12.066;2022-11-20T00:29:09;31.17;;;16.25;;
56075;SDS011;41951;49.022;12.066;2022-11-20T00:31:35;32.63;;;18.20;;
56075;SDS011;41951;49.022;12.066;2022-11-20T00:34:00;28.45;;;14.52;;
56075;SDS011;41951;49.022;12.066;2022-11-20T00:36:27;29.65;;;15.40;;
56075;SDS011;41951;49.022;12.066;2022-11-20T00:38:54;27.80;;;15.98;;
56075;SDS011;41951;49.022;12.066;2022-11-20T00:41:21;29.05;;;15.05;;
56075;SDS011;41951;49.022;12.066;2022-11-20T00:43:47;27.98;;;15.05;;
56075;SDS011;41951;49.022;12.066;2022-11-20T00:46:13;31.55;;;15.73;;
56075;SDS011;41951;49.022;12.066;2022-11-20T00:48:44;27.55;;;14.65;;
56075;SDS011;41951;49.022;12.066;2022-11-20T00:51:11;29.90;;;15.68;;
56075;SDS011;41951;49.022;12.066;2022-11-20T00:53:40;29.47;;;16.30;;
56075;SDS011;41951;49.022;12.066;2022-11-20T00:56:07;31.73;;;16.13;;
56075;SDS011;41951;49.022;12.066;2022-11-20T00:58:36;28.40;;;14.55;;
56075;SDS011;41951;49.022;12.066;2022-11-20T01:01:04;29.70;;;15.48;;
56075;SDS011;41951;49.022;12.066;2022-11-20T01:03:31;29.25;;;15.15;;
56075;SDS011;41951;49.022;12.066;2022-11-20T01:06:05;29.20;;;15.85;;
56075;SDS011;41951;49.022;12.066;2022-11-20T01:08:33;26.20;;;14.20;;
56075;SDS011;41951;49.022;12.066;2022-11-20T01:11:00;29.30;;;15.10;;
56075;SDS011;41951;49.022;12.066;2022-11-20T01:13:27;28.27;;;14.52;;
56075;SDS011;41951;49.022;12.066;2022-11-20T01:16:10;28.90;;;14.38;;
56075;SDS011;41951;49.022;12.066;2022-11-20T01:18:41;24.95;;;12.98;;
56075;SDS011;41951;49.022;12.066;2022-11-20T01:21:10;28.38;;;14.20;;
56075;SDS011;41951;49.022;12.066;2022-11-20T01:23:39;28.23;;;13.77;;
56075;SDS011;41951;49.022;12.066;2022-11-20T01:26:06;25.42;;;13.50;;
56075;SDS011;41951;49.022;12.066;2022-11-20T01:28:34;25.90;;;14.00;;
56075;SDS011;41951;49.022;12.066;2022-11-20T01:31:00;26.75;;;13.98;;
56075;SDS011;41951;49.022;12.066;2022-11-20T01:33:27;28.00;;;14.85;;
56075;SDS011;41951;49.022;12.066;2022-11-20T01:35:53;27.30;;;14.25;;
56075;SDS011;41951;49.022;12.066;2022-11-20T01:38:18;26.70;;;14.27;;
56075;SDS011;41951;49.022;12.066;2022-11-20T01:40:54;25.52;;;13.35;;
56075;SDS011;41951;49.022;12.066;2022-11-20T01:43:20;25.50;;;13.38;;
56075;SDS011;41951;49.022;12.066;2022-11-20T01:45:56;26.95;;;13.95;;
56075;SDS011;41951;49.022;12.066;2022-11-20T01:48:38;25.58;;;14.32;;
56075;SDS011;41951;49.022;12.066;2022-11-20T01:51:12;29.38;;;14.10;;
56075;SDS011;41951;49.022;12.066;2022-11-20T01:53:46;25.80;;;13.63;;
56075;SDS011;41951;49.022;12.066;2022-11-20T01:56:12;24.55;;;13.38;;
56075;SDS011;41951;49.022;12.066;2022-11-20T01:58:39;27.70;;;14.68;;
56075;SDS011;41951;49.022;12.066;2022-11-20T02:01:12;28.17;;;14.77;;
56075;SDS011;41951;49.022;12.066;2022-11-20T02:03:39;26.48;;;14.18;;
56075;SDS011;41951;49.022;12.066;2022-11-20T02:06:08;25.15;;;12.65;;
56075;SDS011;41951;49.022;12.066;2022-11-20T02:08:44;28.70;;;12.98;;
56075;SDS011;41951;49.022;12.066;2022-11-20T02:11:10;28.20;;;13.65;;
56075;SDS011;41951;49.022;12.066;2022-11-20T02:13:37;24.98;;;12.50;;
56075;SDS011;41951;49.022;12.066;2022-11-20T02:16:14;25.23;;;13.50;;
56075;SDS011;41951;49.022;12.066;2022-11-20T02:18:42;27.92;;;14.50;;
56075;SDS011;41951;49.022;12.066;2022-11-20T02:21:13;24.00;;;12.07;;
56075;SDS011;41951;49.022;12.066;2022-11-20T02:26:23;27.10;;;14.50;;
56075;SDS011;41951;49.022;12.066;2022-11-20T02:28:50;27.10;;;13.85;;
56075;SDS011;41951;49.022;12.066;2022-11-20T02:31:16;23.27;;;12.85;;
56075;SDS011;41951;49.022;12.066;2022-11-20T02:33:41;25.48;;;13.38;;
56075;SDS011;41951;49.022;12.066;2022-11-20T02:36:08;28.30;;;16.17;;
56075;SDS011;41951;49.022;12.066;2022-11-20T02:38:39;30.17;;;14.50;;
56075;SDS011;41951;49.022;12.066;2022-11-20T02:41:05;27.13;;;13.48;;
56075;SDS011;41951;49.022;12.066;2022-11-20T02:43:30;25.20;;;12.77;;
56075;SDS011;41951;49.022;12.066;2022-11-20T02:45:56;26.95;;;12.93;;
56075;SDS011;41951;49.022;12.066;2022-11-20T02:48:21;24.75;;;13.10;;
56075;SDS011;41951;49.022;12.066;2022-11-20T02:50:47;23.20;;;12.25;;
56075;SDS011;41951;49.022;12.066;2022-11-20T02:53:13;24.40;;;12.23;;
56075;SDS011;41951;49.022;12.066;2022-11-20T02:55:38;24.02;;;12.95;;
56075;SDS011;41951;49.022;12.066;2022-11-20T02:58:04;25.80;;;13.52;;
56075;SDS011;41951;49.022;12.066;2022-11-20T03:00:30;22.55;;;12.80;;
56075;SDS011;41951;49.022;12.066;2022-11-20T03:02:56;21.95;;;11.65;;
56075;SDS011;41951;49.022;12.066;2022-11-20T03:05:22;25.73;;;13.07;;
56075;SDS011;41951;49.022;12.066;2022-11-20T03:07:48;24.98;;;12.98;;
56075;SDS011;41951;49.022;12.066;2022-11-20T03:10:13;21.92;;;11.57;;
56075;SDS011;41951;49.022;12.066;2022-11-20T03:12:39;24.48;;;12.77;;
56075;SDS011;41951;49.022;12.066;2022-11-20T03:15:05;24.85;;;13.40;;
56075;SDS011;41951;49.022;12.066;2022-11-20T03:17:31;23.85;;;12.48;;
56075;SDS011;41951;49.022;12.066;2022-11-20T03:19:56;24.10;;;12.88;;
56075;SDS011;41951;49.022;12.066;2022-11-20T03:22:23;23.50;;;12.63;;
56075;SDS011;41951;49.022;12.066;2022-11-20T03:24:49;24.50;;;12.55;;
56075;SDS011;41951;49.022;12.066;2022-11-20T03:27:15;22.65;;;11.73;;
56075;SDS011;41951;49.022;12.066;2022-11-20T03:29:40;25.55;;;14.07;;
56075;SDS011;41951;49.022;12.066;2022-11-20T03:32:06;26.90;;;14.18;;
56075;SDS011;41951;49.022;12.066;2022-11-20T03:34:31;26.05;;;13.90;;
56075;SDS011;41951;49.022;12.066;2022-11-20T03:36:57;27.55;;;13.60;;
56075;SDS011;41951;49.022;12.066;2022-11-20T03:39:22;28.58;;;14.25;;
56075;SDS011;41951;49.022;12.066;2022-11-20T03:41:48;26.40;;;12.45;;
56075;SDS011;41951;49.022;12.066;2022-11-20T03:44:14;26.23;;;13.18;;
56075;SDS011;41951;49.022;12.066;2022-11-20T03:46:39;29.98;;;14.77;;
56075;SDS011;41951;49.022;12.066;2022-11-20T03:49:05;27.35;;;13.63;;
56075;SDS011;41951;49.022;12.066;2022-11-20T03:51:31;27.15;;;14.48;;
56075;SDS011;41951;49.022;12.066;2022-11-20T03:54:00;26.70;;;13.75;;
56075;SDS011;41951;49.022;12.066;2022-11-20T03:56:29;26.60;;;13.55;;
56075;SDS011;41951;49.022;12.066;2022-11-20T03:58:57;34.40;;;16.65;;
56075;SDS011;41951;49.022;12.066;2022-11-20T04:01:24;27.67;;;14.48;;
56075;SDS011;41951;49.022;12.066;2022-11-20T04:03:51;25.50;;;13.18;;
56075;SDS011;41951;49.022;12.066;2022-11-20T04:06:22;31.05;;;15.73;;
56075;SDS011;41951;49.022;12.066;2022-11-20T04:08:50;26.27;;;12.30;;
56075;SDS011;41951;49.022;12.066;2022-11-20T04:11:17;28.75;;;14.77;;
56075;SDS011;41951;49.022;12.066;2022-11-20T04:14:17;28.05;;;14.82;;
56075;SDS011;41951;49.022;12.066;2022-11-20T04:16:39;27.52;;;15.20;;
56075;SDS011;41951;49.022;12.066;2022-11-20T04:19:06;29.48;;;14.23;;
56075;SDS011;41951;49.022;12.066;2022-11-20T04:21:35;26.08;;;14.02;;
56075;SDS011;41951;49.022;12.066;2022-11-20T04:24:00;28.58;;;14.32;;
56075;SDS011;41951;49.022;12.066;2022-11-20T04:26:27;29.48;;;14.63;;
56075;SDS011;41951;49.022;12.066;2022-11-20T04:28:54;25.90;;;14.48;;
56075;SDS011;41951;49.022;12.066;2022-11-20T04:31:23;25.92;;;14.73;;
56075;SDS011;41951;49.022;12.066;2022-11-20T04:36:17;26.08;;;12.95;;
56075;SDS011;41951;49.022;12.066;2022-11-20T04:38:45;27.25;;;13.90;;
56075;SDS011;41951;49.022;12.066;2022-11-20T04:41:13;29.08;;;13.55;;
56075;SDS011;41951;49.022;12.066;2022-11-20T04:43:41;28.40;;;14.32;;
56075;SDS011;41951;49.022;12.066;2022-11-20T04:46:10;25.60;;;13.25;;
56075;SDS011;41951;49.022;12.066;2022-11-20T04:48:36;27.15;;;13.90;;
56075;SDS011;41951;49.022;12.066;2022-11-20T04:51:05;28.90;;;14.50;;
56075;SDS011;41951;49.022;12.066;2022-11-20T04:53:31;27.38;;;14.77;;
56075;SDS011;41951;49.022;12.066;2022-11-20T04:56:00;30.33;;;16.63;;
56075;SDS011;41951;49.022;12.066;2022-11-20T04:58:27;28.13;;;14.00;;
56075;SDS011;41951;49.022;12.066;2022-11-20T05:00:53;28.30;;;14.27;;
56075;SDS011;41951;49.022;12.066;2022-11-20T05:03:25;28.75;;;14.13;;
56075;SDS011;41951;49.022;12.066;2022-11-20T05:05:50;29.52;;;14.80;;
56075;SDS011;41951;49.022;12.066;2022-11-20T05:08:16;27.45;;;15.25;;
56075;SDS011;41951;49.022;12.066;2022-11-20T05:10:41;32.03;;;14.80;;
56075;SDS011;41951;49.022;12.066;2022-11-20T05:13:07;33.33;;;16.05;;
56075;SDS011;41951;49.022;12.066;2022-11-20T05:15:33;35.53;;;16.27;;
56075;SDS011;41951;49.022;12.066;2022-11-20T05:17:58;32.75;;;14.60;;
56075;SDS011;41951;49.022;12.066;2022-11-20T05:20:24;29.30;;;14.98;;
56075;SDS011;41951;49.022;12.066;2022-11-20T05:22:49;31.98;;;16.27;;
56075;SDS011;41951;49.022;12.066;2022-11-20T05:25:15;28.92;;;15.48;;
56075;SDS011;41951;49.022;12.066;2022-11-20T05:27:40;29.88;;;15.48;;
56075;SDS011;41951;49.022;12.066;2022-11-20T05:30:06;31.38;;;16.20;;
56075;SDS011;41951;49.022;12.066;2022-11-20T05:32:32;28.60;;;15.13;;
56075;SDS011;41951;49.022;12.066;2022-11-20T05:34:58;32.90;;;16.48;;
56075;SDS011;41951;49.022;12.066;2022-11-20T05:37:24;31.25;;;15.55;;
56075;SDS011;41951;49.022;12.066;2022-11-20T05:39:49;38.95;;;18.50;;
56075;SDS011;41951;49.022;12.066;2022-11-20T05:42:15;31.25;;;15.13;;
56075;SDS011;41951;49.022;12.066;2022-11-20T05:44:55;30.52;;;16.55;;
56075;SDS011;41951;49.022;12.066;2022-11-20T05:47:26;28.45;;;15.25;;
56075;SDS011;41951;49.022;12.066;2022-11-20T05:49:52;35.38;;;16.67;;
56075;SDS011;41951;49.022;12.066;2022-11-20T05:52:18;35.65;;;16.88;;
56075;SDS011;41951;49.022;12.066;2022-11-20T05:54:44;31.38;;;14.35;;
56075;SDS011;41951;49.022;12.066;2022-11-20T05:57:10;29.60;;;15.27;;
56075;SDS011;41951;49.022;12.066;2022-11-20T05:59:35;32.80;;;16.08;;
56075;SDS011;41951;49.022;12.066;2022-11-20T06:02:02;30.42;;;14.60;;
56075;SDS011;41951;49.022;12.066;2022-11-20T06:04:28;37.92;;;16.88;;
56075;SDS011;41951;49.022;12.066;2022-11-20T06:06:53;34.75;;;17.02;;
56075;SDS011;41951;49.022;12.066;2022-11-20T06:09:19;33.63;;;16.13;;
56075;SDS011;41951;49.022;12.066;2022-11-20T06:11:44;34.88;;;17.77;;
56075;SDS011;41951;49.022;12.066;2022-11-20T06:14:10;53.22;;;24.75;;
56075;SDS011;41951;49.022;12.066;2022-11-20T06:16:35;36.00;;;17.83;;
56075;SDS011;41951;49.022;12.066;2022-11-20T06:19:01;36.80;;;17.10;;
56075;SDS011;41951;49.022;12.066;2022-11-20T06:21:27;33.10;;;15.98;;
56075;SDS011;41951;49.022;12.066;2022-11-20T06:23:53;33.55;;;16.15;;
56075;SDS011;41951;49.022;12.066;2022-11-20T06:26:19;32.00;;;16.85;;
56075;SDS011;41951;49.022;12.066;2022-11-20T06:28:47;34.75;;;17.08;;
56075;SDS011;41951;49.022;12.066;2022-11-20T06:31:13;34.25;;;16.75;;
56075;SDS011;41951;49.022;12.066;2022-11-20T06:33:41;30.40;;;16.08;;
56075;SDS011;41951;49.022;12.066;2022-11-20T06:36:07;34.05;;;15.95;;
56075;SDS011;41951;49.022;12.066;2022-11-20T06:38:34;33.45;;;16.52;;
56075;SDS011;41951;49.022;12.066;2022-11-20T06:40:59;36.55;;;19.38;;
56075;SDS011;41951;49.022;12.066;2022-11-20T06:43:25;38.25;;;18.42;;
56075;SDS011;41951;49.022;12.066;2022-11-20T06:45:53;34.63;;;17.55;;
56075;SDS011;41951;49.022;12.066;2022-11-20T06:48:20;36.08;;;17.10;;
56075;SDS011;41951;49.022;12.066;2022-11-20T06:50:47;32.53;;;16.30;;
56075;SDS011;41951;49.022;12.066;2022-11-20T06:53:13;35.17;;;16.35;;
56075;SDS011;41951;49.022;12.066;2022-11-20T06:55:42;36.33;;;18.23;;
56075;SDS011;41951;49.022;12.066;2022-11-20T06:58:09;33.75;;;17.52;;
56075;SDS011;41951;49.022;12.066;2022-11-20T07:00:34;35.63;;;17.90;;
56075;SDS011;41951;49.022;12.066;2022-11-20T07:03:03;33.70;;;17.73;;
56075;SDS011;41951;49.022;12.066;2022-11-20T07:05:29;33.85;;;16.63;;
56075;SDS011;41951;49.022;12.066;2022-11-20T07:07:56;35.88;;;17.60;;
56075;SDS011;41951;49.022;12.066;2022-11-20T07:10:22;36.08;;;18.25;;
56075;SDS011;41951;49.022;12.066;2022-11-20T07:12:51;37.53;;;16.98;;
56075;SDS011;41951;49.022;12.066;2022-11-20T07:15:18;35.88;;;16.92;;
56075;SDS011;41951;49.022;12.066;2022-11-20T07:17:44;32.80;;;16.95;;
56075;SDS011;41951;49.022;12.066;2022-11-20T07:20:10;34.67;;;17.33;;
56075;SDS011;41951;49.022;12.066;2022-11-20T07:22:36;41.47;;;18.17;;
56075;SDS011;41951;49.022;12.066;2022-11-20T07:25:02;38.80;;;18.48;;
56075;SDS011;41951;49.022;12.066;2022-11-20T07:27:29;34.25;;;17.27;;
56075;SDS011;41951;49.022;12.066;2022-11-20T07:29:54;37.35;;;18.30;;
56075;SDS011;41951;49.022;12.066;2022-11-20T07:32:20;36.10;;;18.27;;
56075;SDS011;41951;49.022;12.066;2022-11-20T07:34:46;38.60;;;19.05;;
56075;SDS011;41951;49.022;12.066;2022-11-20T07:37:12;36.38;;;19.70;;
56075;SDS011;41951;49.022;12.066;2022-11-20T07:39:37;66.38;;;32.78;;
56075;SDS011;41951;49.022;12.066;2022-11-20T07:42:03;38.65;;;18.95;;
56075;SDS011;41951;49.022;12.066;2022-11-20T07:44:29;35.65;;;18.15;;
56075;SDS011;41951;49.022;12.066;2022-11-20T07:46:54;31.13;;;15.88;;
56075;SDS011;41951;49.022;12.066;2022-11-20T07:49:20;32.88;;;17.45;;
56075;SDS011;41951;49.022;12.066;2022-11-20T07:51:45;36.88;;;17.13;;
56075;SDS011;41951;49.022;12.066;2022-11-20T07:54:11;32.75;;;17.20;;
56075;SDS011;41951;49.022;12.066;2022-11-20T07:56:36;29.65;;;15.00;;
56075;SDS011;41951;49.022;12.066;2022-11-20T07:59:03;31.05;;;15.00;;
56075;SDS011;41951;49.022;12.066;2022-11-20T08:01:28;32.17;;;15.88;;
56075;SDS011;41951;49.022;12.066;2022-11-20T08:03:54;31.75;;;16.05;;
56075;SDS011;41951;49.022;12.066;2022-11-20T08:06:19;34.42;;;17.60;;
56075;SDS011;41951;49.022;12.066;2022-11-20T08:08:45;30.45;;;16.48;;
56075;SDS011;41951;49.022;12.066;2022-11-20T08:11:11;30.60;;;15.55;;
56075;SDS011;41951;49.022;12.066;2022-11-20T08:13:55;29.60;;;15.88;;
56075;SDS011;41951;49.022;12.066;2022-11-20T08:16:39;28.63;;;14.27;;
56075;SDS011;41951;49.022;12.066;2022-11-20T08:19:05;28.08;;;13.95;;
56075;SDS011;41951;49.022;12.066;2022-11-20T08:21:31;25.98;;;14.07;;
56075;SDS011;41951;49.022;12.066;2022-11-20T08:23:58;26.85;;;13.13;;
56075;SDS011;41951;49.022;12.066;2022-11-20T08:26:24;29.48;;;13.52;;
56075;SDS011;41951;49.022;12.066;2022-11-20T08:28:54;23.58;;;11.50;;
56075;SDS011;41951;49.022;12.066;2022-11-20T08:31:20;23.20;;;11.20;;
56075;SDS011;41951;49.022;12.066;2022-11-20T08:33:46;22.30;;;12.30;;
56075;SDS011;41951;49.022;12.066;2022-11-20T08:36:12;24.15;;;12.07;;
56075;SDS011;41951;49.022;12.066;2022-11-20T08:38:37;24.65;;;12.40;;
56075;SDS011;41951;49.022;12.066;2022-11-20T08:41:04;22.30;;;11.93;;
56075;SDS011;41951;49.022;12.066;2022-11-20T08:43:49;22.42;;;11.45;;
56075;SDS011;41951;49.022;12.066;2022-11-20T08:46:15;23.23;;;12.02;;
56075;SDS011;41951;49.022;12.066;2022-11-20T08:48:41;24.30;;;12.20;;
56075;SDS011;41951;49.022;12.066;2022-11-20T08:51:06;21.63;;;11.60;;
56075;SDS011;41951;49.022;12.066;2022-11-20T08:53:32;22.35;;;11.15;;
56075;SDS011;41951;49.022;12.066;2022-11-20T08:55:58;21.05;;;9.95;;
56075;SDS011;41951;49.022;12.066;2022-11-20T08:58:23;22.58;;;11.38;;
56075;SDS011;41951;49.022;12.066;2022-11-20T09:00:49;20.58;;;10.65;;
56075;SDS011;41951;49.022;12.066;2022-11-20T09:03:15;20.02;;;10.07;;
56075;SDS011;41951;49.022;12.066;2022-11-20T09:05:41;19.52;;;9.65;;
56075;SDS011;41951;49.022;12.066;2022-11-20T09:08:07;17.30;;;9.57;;
56075;SDS011;41951;49.022;12.066;2022-11-20T09:10:33;18.75;;;10.43;;
56075;SDS011;41951;49.022;12.066;2022-11-20T09:12:59;23.45;;;12.10;;
56075;SDS011;41951;49.022;12.066;2022-11-20T09:15:25;68.40;;;38.78;;
56075;SDS011;41951;49.022;12.066;2022-11-20T09:17:55;21.58;;;12.23;;
56075;SDS011;41951;49.022;12.066;2022-11-20T09:20:26;15.63;;;9.13;;
56075;SDS011;41951;49.022;12.066;2022-11-20T09:22:53;13.57;;;7.78;;
56075;SDS011;41951;49.022;12.066;2022-11-20T09:25:19;13.65;;;6.68;;
56075;SDS011;41951;49.022;12.066;2022-11-20T09:27:45;7.70;;;4.63;;
56075;SDS011;41951;49.022;12.066;2022-11-20T09:30:11;7.97;;;4.75;;
56075;SDS011;41951;49.022;12.066;2022-11-20T09:32:38;9.80;;;4.97;;
56075;SDS011;41951;49.022;12.066;2022-11-20T09:35:04;8.18;;;4.40;;
56075;SDS011;41951;49.022;12.066;2022-11-20T09:37:30;8.38;;;4.47;;
56075;SDS011;41951;49.022;12.066;2022-11-20T09:39:56;8.65;;;4.47;;
56075;SDS011;41951;49.022;12.066;2022-11-20T09:45:05;6.72;;;4.50;;
56075;SDS011;41951;49.022;12.066;2022-11-20T09:50:30;8.07;;;5.25;;
56075;SDS011;41951;49.022;12.066;2022-11-20T09:55:33;8.75;;;4.97;;
56075;SDS011;41951;49.022;12.066;2022-11-20T09:58:00;7.50;;;4.20;;
56075;SDS011;41951;49.022;12.066;2022-11-20T10:00:30;11.00;;;4.85;;
56075;SDS011;41951;49.022;12.066;2022-11-20T10:03:00;11.30;;;4.28;;
56075;SDS011;41951;49.022;12.066;2022-11-20T10:05:44;7.05;;;4.07;;
56075;SDS011;41951;49.022;12.066;2022-11-20T10:08:22;7.28;;;4.22;;
56075;SDS011;41951;49.022;12.066;2022-11-20T10:11:13;10.95;;;5.70;;
56075;SDS011;41951;49.022;12.066;2022-11-20T10:14:00;8.38;;;5.30;;
56075;SDS011;41951;49.022;12.066;2022-11-20T10:22:24;6.90;;;4.13;;
56075;SDS011;41951;49.022;12.066;2022-11-20T10:25:14;9.18;;;4.22;;
56075;SDS011;41951;49.022;12.066;2022-11-20T10:30:24;7.32;;;4.18;;
56075;SDS011;41951;49.022;12.066;2022-11-20T10:38:25;8.27;;;4.18;;
56075;SDS011;41951;49.022;12.066;2022-11-20T10:41:00;8.52;;;4.18;;
56075;SDS011;41951;49.022;12.066;2022-11-20T10:43:46;7.13;;;3.87;;
56075;SDS011;41951;49.022;12.066;2022-11-20T10:46:17;9.45;;;4.72;;
56075;SDS011;41951;49.022;12.066;2022-11-20T10:48:47;5.60;;;3.80;;
56075;SDS011;41951;49.022;12.066;2022-11-20T10:56:38;7.75;;;3.72;;
56075;SDS011;41951;49.022;12.066;2022-11-20T11:02:21;7.78;;;3.72;;
56075;SDS011;41951;49.022;12.066;2022-11-20T11:04:49;5.93;;;4.07;;
56075;SDS011;41951;49.022;12.066;2022-11-20T11:10:05;7.05;;;4.07;;
56075;SDS011;41951;49.022;12.066;2022-11-20T11:12:42;7.70;;;4.45;;
56075;SDS011;41951;49.022;12.066;2022-11-20T11:15:11;7.25;;;4.10;;
56075;SDS011;41951;49.022;12.066;2022-11-20T11:17:45;5.35;;;3.60;;
56075;SDS011;41951;49.022;12.066;2022-11-20T11:20:16;6.55;;;3.92;;
56075;SDS011;41951;49.022;12.066;2022-11-20T11:25:25;6.10;;;3.88;;
56075;SDS011;41951;49.022;12.066;2022-11-20T11:27:58;6.90;;;3.97;;
56075;SDS011;41951;49.022;12.066;2022-11-20T11:30:26;5.80;;;3.55;;
56075;SDS011;41951;49.022;12.066;2022-11-20T11:33:09;10.18;;;5.93;;
56075;SDS011;41951;49.022;12.066;2022-11-20T11:35:49;9.75;;;4.55;;
56075;SDS011;41951;49.022;12.066;2022-11-20T11:38:23;6.40;;;3.60;;
56075;SDS011;41951;49.022;12.066;2022-11-20T11:41:04;7.45;;;3.92;;
56075;SDS011;41951;49.022;12.066;2022-11-20T11:43:32;7.28;;;3.95;;
56075;SDS011;41951;49.022;12.066;2022-11-20T11:51:23;6.07;;;3.45;;
56075;SDS011;41951;49.022;12.066;2022-11-20T11:53:56;5.90;;;3.40;;
56075;SDS011;41951;49.022;12.066;2022-11-20T11:56:24;7.70;;;3.63;;
56075;SDS011;41951;49.022;12.066;2022-11-20T11:58:51;5.80;;;3.60;;
56075;SDS011;41951;49.022;12.066;2022-11-20T12:04:10;5.63;;;3.58;;
56075;SDS011;41951;49.022;12.066;2022-11-20T12:06:40;5.72;;;3.08;;
56075;SDS011;41951;49.022;12.066;2022-11-20T12:09:09;9.30;;;3.67;;
56075;SDS011;41951;49.022;12.066;2022-11-20T12:14:13;5.40;;;3.10;;
56075;SDS011;41951;49.022;12.066;2022-11-20T12:16:58;4.97;;;3.42;;
56075;SDS011;41951;49.022;12.066;2022-11-20T12:19:26;6.13;;;3.20;;
56075;SDS011;41951;49.022;12.066;2022-11-20T12:24:56;4.72;;;2.95;;
56075;SDS011;41951;49.022;12.066;2022-11-20T12:30:18;4.47;;;2.80;;
56075;SDS011;41951;49.022;12.066;2022-11-20T12:32:58;6.40;;;2.75;;
56075;SDS011;41951;49.022;12.066;2022-11-20T12:40:45;4.10;;;2.70;;
56075;SDS011;41951;49.022;12.066;2022-11-20T12:43:28;3.63;;;2.53;;
56075;SDS011;41951;49.022;12.066;2022-11-20T12:46:24;5.47;;;2.60;;
56075;SDS011;41951;49.022;12.066;2022-11-20T12:57:11;6.30;;;2.53;;
56075;SDS011;41951;49.022;12.066;2022-11-20T12:59:53;5.45;;;3.10;;
56075;SDS011;41951;49.022;12.066;2022-11-20T13:05:16;4.88;;;2.75;;
56075;SDS011;41951;49.022;12.066;2022-11-20T13:08:01;4.50;;;2.50;;
56075;SDS011;41951;49.022;12.066;2022-11-20T13:18:15;4.93;;;2.90;;
56075;SDS011;41951;49.022;12.066;2022-11-20T13:20:43;5.10;;;2.72;;
56075;SDS011;41951;49.022;12.066;2022-11-20T13:23:10;4.95;;;2.70;;
56075;SDS011;41951;49.022;12.066;2022-11-20T13:25:39;5.32;;;2.45;;
56075;SDS011;41951;49.022;12.066;2022-11-20T13:30:47;4.38;;;2.70;;
56075;SDS011;41951;49.022;12.066;2022-11-20T13:33:34;4.63;;;2.63;;
56075;SDS011;41951;49.022;12.066;2022-11-20T13:36:21;4.70;;;2.40;;
56075;SDS011;41951;49.022;12.066;2022-11-20T13:38:49;3.63;;;2.20;;
56075;SDS011;41951;49.022;12.066;2022-11-20T13:41:23;4.65;;;2.30;;
56075;SDS011;41951;49.022;12.066;2022-11-20T13:46:59;3.00;;;1.90;;
56075;SDS011;41951;49.022;12.066;2022-11-20T13:49:38;4.00;;;2.28;;
56075;SDS011;41951;49.022;12.066;2022-11-20T13:55:23;4.03;;;2.50;;
56075;SDS011;41951;49.022;12.066;2022-11-20T14:00:57;4.03;;;2.30;;
56075;SDS011;41951;49.022;12.066;2022-11-20T14:03:28;4.18;;;2.20;;
56075;SDS011;41951;49.022;12.066;2022-11-20T14:05:56;4.28;;;2.22;;
56075;SDS011;41951;49.022;12.066;2022-11-20T14:08:38;4.18;;;2.28;;
56075;SDS011;41951;49.022;12.066;2022-11-20T14:13:59;4.53;;;2.95;;
56075;SDS011;41951;49.022;12.066;2022-11-20T14:16:28;19.48;;;11.27;;
56075;SDS011;41951;49.022;12.066;2022-11-20T14:18:56;6.47;;;3.40;;
56075;SDS011;41951;49.022;12.066;2022-11-20T14:21:26;4.75;;;2.95;;
56075;SDS011;41951;49.022;12.066;2022-11-20T14:23:53;4.68;;;2.45;;
56075;SDS011;41951;49.022;12.066;2022-11-20T14:26:29;4.18;;;2.72;;
56075;SDS011;41951;49.022;12.066;2022-11-20T14:28:55;6.57;;;2.92;;
56075;SDS011;41951;49.022;12.066;2022-11-20T14:31:22;6.63;;;3.00;;
56075;SDS011;41951;49.022;12.066;2022-11-20T14:33:50;5.53;;;3.08;;
56075;SDS011;41951;49.022;12.066;2022-11-20T14:36:17;5.20;;;2.92;;
56075;SDS011;41951;49.022;12.066;2022-11-20T14:38:45;5.35;;;3.33;;
56075;SDS011;41951;49.022;12.066;2022-11-20T14:41:22;6.22;;;3.88;;
56075;SDS011;41951;49.022;12.066;2022-11-20T14:43:59;6.60;;;3.75;;
56075;SDS011;41951;49.022;12.066;2022-11-20T14:46:26;9.23;;;4.28;;
56075;SDS011;41951;49.022;12.066;2022-11-20T14:48:55;7.97;;;3.28;;
56075;SDS011;41951;49.022;12.066;2022-11-20T14:51:35;6.95;;;4.00;;
56075;SDS011;41951;49.022;12.066;2022-11-20T14:54:24;5.90;;;3.25;;
56075;SDS011;41951;49.022;12.066;2022-11-20T14:56:58;4.72;;;3.22;;
56075;SDS011;41951;49.022;12.066;2022-11-20T14:59:26;4.57;;;2.38;;
56075;SDS011;41951;49.022;12.066;2022-11-20T15:01:58;5.82;;;2.88;;
56075;SDS011;41951;49.022;12.066;2022-11-20T15:04:27;4.93;;;2.80;;
56075;SDS011;41951;49.022;12.066;2022-11-20T15:06:54;4.20;;;2.90;;
56075;SDS011;41951;49.022;12.066;2022-11-20T15:09:21;7.13;;;4.00;;
56075;SDS011;41951;49.022;12.066;2022-11-20T15:11:59;4.97;;;3.13;;
56075;SDS011;41951;49.022;12.066;2022-11-20T15:14:28;4.38;;;3.03;;
56075;SDS011;41951;49.022;12.066;2022-11-20T15:16:55;5.47;;;3.55;;
56075;SDS011;41951;49.022;12.066;2022-11-20T15:19:21;6.22;;;4.25;;
56075;SDS011;41951;49.022;12.066;2022-11-20T15:21:49;4.78;;;3.08;;
56075;SDS011;41951;49.022;12.066;2022-11-20T15:24:15;5.18;;;3.00;;
56075;SDS011;41951;49.022;12.066;2022-11-20T15:26:41;3.95;;;2.60;;
56075;SDS011;41951;49.022;12.066;2022-11-20T15:29:12;4.80;;;2.50;;
56075;SDS011;41951;49.022;12.066;2022-11-20T15:31:40;4.15;;;2.40;;
56075;SDS011;41951;49.022;12.066;2022-11-20T15:34:11;4.38;;;2.40;;
56075;SDS011;41951;49.022;12.066;2022-11-20T15:36:37;3.88;;;1.90;;
56075;SDS011;41951;49.022;12.066;2022-11-20T15:39:04;4.57;;;2.20;;
56075;SDS011;41951;49.022;12.066;2022-11-20T15:41:29;3.75;;;2.17;;
56075;SDS011;41951;49.022;12.066;2022-11-20T15:43:55;3.92;;;2.20;;
56075;SDS011;41951;49.022;12.066;2022-11-20T15:46:25;4.70;;;2.20;;
56075;SDS011;41951;49.022;12.066;2022-11-20T15:48:56;4.90;;;2.67;;
56075;SDS011;41951;49.022;12.066;2022-11-20T15:51:26;4.82;;;2.55;;
56075;SDS011;41951;49.022;12.066;2022-11-20T15:54:22;3.63;;;2.20;;
56075;SDS011;41951;49.022;12.066;2022-11-20T15:56:48;4.07;;;2.20;;
56075;SDS011;41951;49.022;12.066;2022-11-20T15:59:17;3.67;;;2.20;;
56075;SDS011;41951;49.022;12.066;2022-11-20T16:01:43;3.22;;;2.03;;
56075;SDS011;41951;49.022;12.066;2022-11-20T16:04:12;3.40;;;2.08;;
56075;SDS011;41951;49.022;12.066;2022-11-20T16:06:41;8.25;;;4.60;;